sensor_id;sensor_type;location;lat;lon;timestamp;P1;durP1;ratioP1;P2;durP2;ratioP2
44658;SDS011;30378;50.186;8.644;2022-08-01T00:01:54;1.90;;;0.88;;
44658;SDS011;30378;50.186;8.644;2022-08-01T00:04:21;1.80;;;0.68;;
44658;SDS011;30378;50.186;8.644;2022-08-01T00:06:48;3.17;;;0.82;;
44658;SDS011;30378;50.186;8.644;2022-08-01T00:09:15;2.20;;;0.90;;
44658;SDS011;30378;50.186;8.644;2022-08-01T00:11:42;2.95;;;0.63;;
44658;SDS011;30378;50.186;8.644;2022-08-01T00:14:09;1.63;;;0.60;;
44658;SDS011;30378;50.186;8.644;2022-08-01T00:16:36;1.50;;;0.90;;
44658;SDS011;30378;50.186;8.644;2022-08-01T00:19:04;2.20;;;0.82;;
44658;SDS011;30378;50.186;8.644;2022-08-01T00:21:31;1.73;;;0.73;;
44658;SDS011;30378;50.186;8.644;2022-08-01T00:23:58;1.60;;;0.32;;
44658;SDS011;30378;50.186;8.644;2022-08-01T00:26:25;2.55;;;0.70;;
44658;SDS011;30378;50.186;8.644;2022-08-01T00:28:52;2.67;;;0.70;;
44658;SDS011;30378;50.186;8.644;2022-08-01T00:31:19;2.75;;;1.42;;
44658;SDS011;30378;50.186;8.644;2022-08-01T00:33:47;3.05;;;0.93;;
44658;SDS011;30378;50.186;8.644;2022-08-01T00:36:14;2.00;;;0.80;;
44658;SDS011;30378;50.186;8.644;2022-08-01T00:38:41;1.70;;;0.93;;
44658;SDS011;30378;50.186;8.644;2022-08-01T00:41:08;2.13;;;0.60;;
44658;SDS011;30378;50.186;8.644;2022-08-01T00:43:35;4.38;;;0.80;;
44658;SDS011;30378;50.186;8.644;2022-08-01T00:46:01;2.47;;;0.85;;
44658;SDS011;30378;50.186;8.644;2022-08-01T00:48:29;1.98;;;0.43;;
44658;SDS011;30378;50.186;8.644;2022-08-01T00:50:56;2.50;;;0.90;;
44658;SDS011;30378;50.186;8.644;2022-08-01T00:53:23;1.40;;;0.60;;
44658;SDS011;30378;50.186;8.644;2022-08-01T00:55:51;2.17;;;0.70;;
44658;SDS011;30378;50.186;8.644;2022-08-01T00:58:18;3.22;;;0.93;;
44658;SDS011;30378;50.186;8.644;2022-08-01T01:00:46;3.60;;;0.80;;
44658;SDS011;30378;50.186;8.644;2022-08-01T01:03:13;2.13;;;0.82;;
44658;SDS011;30378;50.186;8.644;2022-08-01T01:05:44;1.63;;;0.82;;
44658;SDS011;30378;50.186;8.644;2022-08-01T01:08:41;2.55;;;0.73;;
44658;SDS011;30378;50.186;8.644;2022-08-01T01:11:23;2.90;;;1.10;;
44658;SDS011;30378;50.186;8.644;2022-08-01T01:14:00;1.80;;;0.68;;
44658;SDS011;30378;50.186;8.644;2022-08-01T01:16:31;1.60;;;0.82;;
44658;SDS011;30378;50.186;8.644;2022-08-01T01:19:01;2.22;;;0.70;;
44658;SDS011;30378;50.186;8.644;2022-08-01T01:27:10;2.63;;;0.50;;
44658;SDS011;30378;50.186;8.644;2022-08-01T01:29:49;1.85;;;0.65;;
44658;SDS011;30378;50.186;8.644;2022-08-01T01:32:52;2.83;;;0.88;;
44658;SDS011;30378;50.186;8.644;2022-08-01T01:35:19;1.80;;;0.60;;
44658;SDS011;30378;50.186;8.644;2022-08-01T01:37:50;3.92;;;0.85;;
44658;SDS011;30378;50.186;8.644;2022-08-01T01:40:24;2.13;;;0.85;;
44658;SDS011;30378;50.186;8.644;2022-08-01T01:42:52;1.70;;;0.68;;
44658;SDS011;30378;50.186;8.644;2022-08-01T01:45:25;2.58;;;1.10;;
44658;SDS011;30378;50.186;8.644;2022-08-01T01:47:53;1.35;;;0.60;;
44658;SDS011;30378;50.186;8.644;2022-08-01T01:50:23;2.45;;;0.88;;
44658;SDS011;30378;50.186;8.644;2022-08-01T01:52:51;2.03;;;0.70;;
44658;SDS011;30378;50.186;8.644;2022-08-01T01:55:21;1.50;;;0.70;;
44658;SDS011;30378;50.186;8.644;2022-08-01T01:57:50;3.40;;;0.80;;
44658;SDS011;30378;50.186;8.644;2022-08-01T02:00:18;1.65;;;0.75;;
44658;SDS011;30378;50.186;8.644;2022-08-01T02:02:46;6.18;;;1.10;;
44658;SDS011;30378;50.186;8.644;2022-08-01T02:05:14;1.85;;;0.73;;
44658;SDS011;30378;50.186;8.644;2022-08-01T02:07:41;2.33;;;0.68;;
44658;SDS011;30378;50.186;8.644;2022-08-01T02:10:10;2.05;;;0.65;;
44658;SDS011;30378;50.186;8.644;2022-08-01T02:12:41;2.95;;;0.63;;
44658;SDS011;30378;50.186;8.644;2022-08-01T02:15:12;1.30;;;0.55;;
44658;SDS011;30378;50.186;8.644;2022-08-01T02:17:41;1.80;;;0.80;;
44658;SDS011;30378;50.186;8.644;2022-08-01T02:20:11;1.55;;;0.65;;
44658;SDS011;30378;50.186;8.644;2022-08-01T02:22:42;2.58;;;0.68;;
44658;SDS011;30378;50.186;8.644;2022-08-01T02:25:15;1.70;;;0.73;;
44658;SDS011;30378;50.186;8.644;2022-08-01T02:27:56;3.40;;;1.15;;
44658;SDS011;30378;50.186;8.644;2022-08-01T02:30:31;3.13;;;1.02;;
44658;SDS011;30378;50.186;8.644;2022-08-01T02:33:14;2.08;;;1.02;;
44658;SDS011;30378;50.186;8.644;2022-08-01T02:35:46;2.58;;;0.73;;
44658;SDS011;30378;50.186;8.644;2022-08-01T02:38:16;2.15;;;0.90;;
44658;SDS011;30378;50.186;8.644;2022-08-01T02:40:45;2.22;;;0.80;;
44658;SDS011;30378;50.186;8.644;2022-08-01T02:43:15;1.98;;;0.82;;
44658;SDS011;30378;50.186;8.644;2022-08-01T02:45:48;1.63;;;0.60;;
44658;SDS011;30378;50.186;8.644;2022-08-01T02:48:26;4.47;;;0.90;;
44658;SDS011;30378;50.186;8.644;2022-08-01T02:50:55;2.83;;;0.73;;
44658;SDS011;30378;50.186;8.644;2022-08-01T02:53:24;2.25;;;0.85;;
44658;SDS011;30378;50.186;8.644;2022-08-01T02:55:54;2.88;;;1.02;;
44658;SDS011;30378;50.186;8.644;2022-08-01T02:58:22;2.53;;;0.88;;
44658;SDS011;30378;50.186;8.644;2022-08-01T03:00:51;1.98;;;0.70;;
44658;SDS011;30378;50.186;8.644;2022-08-01T03:03:19;2.38;;;0.88;;
44658;SDS011;30378;50.186;8.644;2022-08-01T03:05:47;2.03;;;1.00;;
44658;SDS011;30378;50.186;8.644;2022-08-01T03:08:15;1.70;;;0.77;;
44658;SDS011;30378;50.186;8.644;2022-08-01T03:10:45;3.65;;;0.90;;
44658;SDS011;30378;50.186;8.644;2022-08-01T03:13:13;2.35;;;0.75;;
44658;SDS011;30378;50.186;8.644;2022-08-01T03:15:43;2.92;;;0.90;;
44658;SDS011;30378;50.186;8.644;2022-08-01T03:18:10;1.90;;;0.80;;
44658;SDS011;30378;50.186;8.644;2022-08-01T03:20:40;3.05;;;0.93;;
44658;SDS011;30378;50.186;8.644;2022-08-01T03:23:10;3.08;;;0.75;;
44658;SDS011;30378;50.186;8.644;2022-08-01T03:25:39;2.67;;;0.90;;
44658;SDS011;30378;50.186;8.644;2022-08-01T03:28:08;2.75;;;0.85;;
44658;SDS011;30378;50.186;8.644;2022-08-01T03:30:40;2.47;;;1.05;;
44658;SDS011;30378;50.186;8.644;2022-08-01T03:33:08;3.10;;;0.90;;
44658;SDS011;30378;50.186;8.644;2022-08-01T03:35:37;1.58;;;0.93;;
44658;SDS011;30378;50.186;8.644;2022-08-01T03:38:09;1.98;;;0.95;;
44658;SDS011;30378;50.186;8.644;2022-08-01T03:40:43;3.35;;;1.05;;
44658;SDS011;30378;50.186;8.644;2022-08-01T03:43:20;1.95;;;0.90;;
44658;SDS011;30378;50.186;8.644;2022-08-01T03:45:53;1.40;;;0.80;;
44658;SDS011;30378;50.186;8.644;2022-08-01T03:48:28;2.90;;;0.85;;
44658;SDS011;30378;50.186;8.644;2022-08-01T03:50:59;2.97;;;0.75;;
44658;SDS011;30378;50.186;8.644;2022-08-01T03:53:30;2.72;;;0.77;;
44658;SDS011;30378;50.186;8.644;2022-08-01T03:56:00;1.88;;;0.82;;
44658;SDS011;30378;50.186;8.644;2022-08-01T03:58:29;5.35;;;1.10;;
44658;SDS011;30378;50.186;8.644;2022-08-01T04:00:57;1.55;;;0.82;;
44658;SDS011;30378;50.186;8.644;2022-08-01T04:03:25;3.08;;;1.02;;
44658;SDS011;30378;50.186;8.644;2022-08-01T04:05:52;1.98;;;0.68;;
44658;SDS011;30378;50.186;8.644;2022-08-01T04:08:19;2.30;;;0.68;;
44658;SDS011;30378;50.186;8.644;2022-08-01T04:10:46;2.42;;;1.35;;
44658;SDS011;30378;50.186;8.644;2022-08-01T04:13:13;2.90;;;1.10;;
44658;SDS011;30378;50.186;8.644;2022-08-01T04:15:40;2.72;;;1.20;;
44658;SDS011;30378;50.186;8.644;2022-08-01T04:18:07;1.95;;;1.10;;
44658;SDS011;30378;50.186;8.644;2022-08-01T04:20:34;2.17;;;1.15;;
44658;SDS011;30378;50.186;8.644;2022-08-01T04:23:02;2.67;;;1.00;;
44658;SDS011;30378;50.186;8.644;2022-08-01T04:25:30;3.20;;;1.35;;
44658;SDS011;30378;50.186;8.644;2022-08-01T04:28:01;3.33;;;1.10;;
44658;SDS011;30378;50.186;8.644;2022-08-01T04:30:31;4.13;;;0.95;;
44658;SDS011;30378;50.186;8.644;2022-08-01T04:33:01;2.85;;;1.10;;
44658;SDS011;30378;50.186;8.644;2022-08-01T04:35:33;2.90;;;0.93;;
44658;SDS011;30378;50.186;8.644;2022-08-01T04:38:02;2.08;;;0.85;;
44658;SDS011;30378;50.186;8.644;2022-08-01T04:40:31;2.70;;;0.82;;
44658;SDS011;30378;50.186;8.644;2022-08-01T04:43:00;2.38;;;0.82;;
44658;SDS011;30378;50.186;8.644;2022-08-01T04:45:27;2.10;;;1.00;;
44658;SDS011;30378;50.186;8.644;2022-08-01T04:47:55;2.22;;;0.80;;
44658;SDS011;30378;50.186;8.644;2022-08-01T04:50:24;2.47;;;1.13;;
44658;SDS011;30378;50.186;8.644;2022-08-01T04:52:51;2.50;;;1.05;;
44658;SDS011;30378;50.186;8.644;2022-08-01T04:55:18;2.78;;;0.95;;
44658;SDS011;30378;50.186;8.644;2022-08-01T04:57:46;1.73;;;0.75;;
44658;SDS011;30378;50.186;8.644;2022-08-01T05:00:14;2.50;;;1.02;;
44658;SDS011;30378;50.186;8.644;2022-08-01T05:02:43;2.00;;;0.82;;
44658;SDS011;30378;50.186;8.644;2022-08-01T05:05:10;3.35;;;1.02;;
44658;SDS011;30378;50.186;8.644;2022-08-01T05:07:37;2.10;;;0.85;;
44658;SDS011;30378;50.186;8.644;2022-08-01T05:10:05;3.65;;;0.95;;
44658;SDS011;30378;50.186;8.644;2022-08-01T05:12:32;2.25;;;1.02;;
44658;SDS011;30378;50.186;8.644;2022-08-01T05:14:59;1.83;;;0.88;;
44658;SDS011;30378;50.186;8.644;2022-08-01T05:17:26;2.30;;;0.88;;
44658;SDS011;30378;50.186;8.644;2022-08-01T05:19:53;3.28;;;1.00;;
44658;SDS011;30378;50.186;8.644;2022-08-01T05:22:20;2.83;;;0.93;;
44658;SDS011;30378;50.186;8.644;2022-08-01T05:24:48;2.75;;;0.98;;
44658;SDS011;30378;50.186;8.644;2022-08-01T05:27:15;2.92;;;1.10;;
44658;SDS011;30378;50.186;8.644;2022-08-01T05:29:43;2.22;;;0.90;;
44658;SDS011;30378;50.186;8.644;2022-08-01T05:32:10;2.05;;;0.98;;
44658;SDS011;30378;50.186;8.644;2022-08-01T05:34:37;3.47;;;1.13;;
44658;SDS011;30378;50.186;8.644;2022-08-01T05:37:04;2.90;;;1.10;;
44658;SDS011;30378;50.186;8.644;2022-08-01T05:39:31;2.20;;;1.05;;
44658;SDS011;30378;50.186;8.644;2022-08-01T05:41:58;2.38;;;1.02;;
44658;SDS011;30378;50.186;8.644;2022-08-01T05:44:25;5.03;;;1.15;;
44658;SDS011;30378;50.186;8.644;2022-08-01T05:46:52;3.05;;;1.25;;
44658;SDS011;30378;50.186;8.644;2022-08-01T05:49:19;2.30;;;0.88;;
44658;SDS011;30378;50.186;8.644;2022-08-01T05:51:46;2.10;;;0.98;;
44658;SDS011;30378;50.186;8.644;2022-08-01T05:54:13;2.05;;;1.10;;
44658;SDS011;30378;50.186;8.644;2022-08-01T05:56:40;4.20;;;1.00;;
44658;SDS011;30378;50.186;8.644;2022-08-01T05:59:07;5.10;;;1.20;;
44658;SDS011;30378;50.186;8.644;2022-08-01T06:01:34;2.63;;;0.88;;
44658;SDS011;30378;50.186;8.644;2022-08-01T06:04:01;2.70;;;1.10;;
44658;SDS011;30378;50.186;8.644;2022-08-01T06:06:28;2.10;;;1.10;;
44658;SDS011;30378;50.186;8.644;2022-08-01T06:08:55;3.25;;;0.75;;
44658;SDS011;30378;50.186;8.644;2022-08-01T06:11:22;3.53;;;1.30;;
44658;SDS011;30378;50.186;8.644;2022-08-01T06:13:49;2.53;;;0.90;;
44658;SDS011;30378;50.186;8.644;2022-08-01T06:16:16;2.72;;;1.23;;
44658;SDS011;30378;50.186;8.644;2022-08-01T06:18:43;1.88;;;0.93;;
44658;SDS011;30378;50.186;8.644;2022-08-01T06:21:10;2.65;;;1.13;;
44658;SDS011;30378;50.186;8.644;2022-08-01T06:23:37;2.65;;;1.23;;
44658;SDS011;30378;50.186;8.644;2022-08-01T06:26:04;2.60;;;1.10;;
44658;SDS011;30378;50.186;8.644;2022-08-01T06:28:31;2.38;;;1.00;;
44658;SDS011;30378;50.186;8.644;2022-08-01T06:30:58;3.95;;;1.17;;
44658;SDS011;30378;50.186;8.644;2022-08-01T06:33:26;2.08;;;1.15;;
44658;SDS011;30378;50.186;8.644;2022-08-01T06:35:53;2.30;;;1.42;;
44658;SDS011;30378;50.186;8.644;2022-08-01T06:38:21;3.13;;;1.63;;
44658;SDS011;30378;50.186;8.644;2022-08-01T06:40:48;2.90;;;1.40;;
44658;SDS011;30378;50.186;8.644;2022-08-01T06:43:16;2.78;;;1.70;;
44658;SDS011;30378;50.186;8.644;2022-08-01T06:45:43;2.55;;;1.40;;
44658;SDS011;30378;50.186;8.644;2022-08-01T06:48:10;3.45;;;1.85;;
44658;SDS011;30378;50.186;8.644;2022-08-01T06:50:37;4.28;;;2.38;;
44658;SDS011;30378;50.186;8.644;2022-08-01T06:53:04;4.53;;;2.08;;
44658;SDS011;30378;50.186;8.644;2022-08-01T06:55:31;4.47;;;2.20;;
44658;SDS011;30378;50.186;8.644;2022-08-01T06:57:58;3.22;;;2.33;;
44658;SDS011;30378;50.186;8.644;2022-08-01T07:00:25;4.95;;;2.35;;
44658;SDS011;30378;50.186;8.644;2022-08-01T07:02:54;4.63;;;2.45;;
44658;SDS011;30378;50.186;8.644;2022-08-01T07:05:23;6.25;;;2.80;;
44658;SDS011;30378;50.186;8.644;2022-08-01T07:07:50;4.93;;;2.60;;
44658;SDS011;30378;50.186;8.644;2022-08-01T07:10:17;5.03;;;2.95;;
44658;SDS011;30378;50.186;8.644;2022-08-01T07:12:44;4.75;;;2.53;;
44658;SDS011;30378;50.186;8.644;2022-08-01T07:15:11;5.35;;;3.03;;
44658;SDS011;30378;50.186;8.644;2022-08-01T07:17:39;5.03;;;2.65;;
44658;SDS011;30378;50.186;8.644;2022-08-01T07:20:09;5.45;;;2.85;;
44658;SDS011;30378;50.186;8.644;2022-08-01T07:22:38;4.45;;;2.47;;
44658;SDS011;30378;50.186;8.644;2022-08-01T07:25:05;3.30;;;2.55;;
44658;SDS011;30378;50.186;8.644;2022-08-01T07:27:33;3.95;;;2.60;;
44658;SDS011;30378;50.186;8.644;2022-08-01T07:30:00;3.40;;;2.53;;
44658;SDS011;30378;50.186;8.644;2022-08-01T07:32:27;3.70;;;2.20;;
44658;SDS011;30378;50.186;8.644;2022-08-01T07:34:55;4.20;;;2.58;;
44658;SDS011;30378;50.186;8.644;2022-08-01T07:37:23;4.00;;;2.47;;
44658;SDS011;30378;50.186;8.644;2022-08-01T07:39:50;5.13;;;2.97;;
44658;SDS011;30378;50.186;8.644;2022-08-01T07:42:17;4.10;;;2.70;;
44658;SDS011;30378;50.186;8.644;2022-08-01T07:44:44;5.03;;;2.95;;
44658;SDS011;30378;50.186;8.644;2022-08-01T07:47:11;4.00;;;2.42;;
44658;SDS011;30378;50.186;8.644;2022-08-01T07:49:38;2.97;;;2.15;;
44658;SDS011;30378;50.186;8.644;2022-08-01T07:52:06;3.20;;;2.38;;
44658;SDS011;30378;50.186;8.644;2022-08-01T07:54:34;3.45;;;2.50;;
44658;SDS011;30378;50.186;8.644;2022-08-01T07:57:02;3.67;;;2.88;;
44658;SDS011;30378;50.186;8.644;2022-08-01T07:59:29;4.03;;;2.55;;
44658;SDS011;30378;50.186;8.644;2022-08-01T08:01:57;3.80;;;2.30;;
44658;SDS011;30378;50.186;8.644;2022-08-01T08:04:24;3.72;;;2.47;;
44658;SDS011;30378;50.186;8.644;2022-08-01T08:06:51;3.47;;;2.40;;
44658;SDS011;30378;50.186;8.644;2022-08-01T08:09:20;4.72;;;2.70;;
44658;SDS011;30378;50.186;8.644;2022-08-01T08:11:47;4.28;;;2.75;;
44658;SDS011;30378;50.186;8.644;2022-08-01T08:14:17;3.67;;;2.42;;
44658;SDS011;30378;50.186;8.644;2022-08-01T08:16:45;3.65;;;2.72;;
44658;SDS011;30378;50.186;8.644;2022-08-01T08:19:12;3.60;;;2.33;;
44658;SDS011;30378;50.186;8.644;2022-08-01T08:21:39;4.50;;;2.63;;
44658;SDS011;30378;50.186;8.644;2022-08-01T08:24:07;3.45;;;2.15;;
44658;SDS011;30378;50.186;8.644;2022-08-01T08:26:48;5.15;;;2.75;;
44658;SDS011;30378;50.186;8.644;2022-08-01T08:29:16;3.95;;;2.63;;
44658;SDS011;30378;50.186;8.644;2022-08-01T08:31:43;4.85;;;2.88;;
44658;SDS011;30378;50.186;8.644;2022-08-01T08:34:11;4.00;;;2.72;;
44658;SDS011;30378;50.186;8.644;2022-08-01T08:36:38;5.30;;;3.15;;
44658;SDS011;30378;50.186;8.644;2022-08-01T08:39:05;4.65;;;2.58;;
44658;SDS011;30378;50.186;8.644;2022-08-01T08:41:33;3.85;;;2.83;;
44658;SDS011;30378;50.186;8.644;2022-08-01T08:44:07;3.90;;;3.13;;
44658;SDS011;30378;50.186;8.644;2022-08-01T08:46:38;4.22;;;2.20;;
44658;SDS011;30378;50.186;8.644;2022-08-01T08:49:09;4.90;;;3.03;;
44658;SDS011;30378;50.186;8.644;2022-08-01T08:51:38;4.15;;;2.75;;
44658;SDS011;30378;50.186;8.644;2022-08-01T08:54:07;4.13;;;2.90;;
44658;SDS011;30378;50.186;8.644;2022-08-01T08:56:38;4.38;;;2.78;;
44658;SDS011;30378;50.186;8.644;2022-08-01T08:59:05;5.53;;;2.85;;
44658;SDS011;30378;50.186;8.644;2022-08-01T09:01:33;4.43;;;2.78;;
44658;SDS011;30378;50.186;8.644;2022-08-01T09:04:02;4.18;;;2.75;;
44658;SDS011;30378;50.186;8.644;2022-08-01T09:06:30;3.85;;;2.65;;
44658;SDS011;30378;50.186;8.644;2022-08-01T09:08:59;3.55;;;2.45;;
44658;SDS011;30378;50.186;8.644;2022-08-01T09:11:26;4.55;;;2.63;;
44658;SDS011;30378;50.186;8.644;2022-08-01T09:17:00;4.85;;;2.40;;
44658;SDS011;30378;50.186;8.644;2022-08-01T09:19:37;5.18;;;2.55;;
44658;SDS011;30378;50.186;8.644;2022-08-01T09:22:11;4.18;;;2.97;;
44658;SDS011;30378;50.186;8.644;2022-08-01T09:24:40;3.92;;;3.00;;
44658;SDS011;30378;50.186;8.644;2022-08-01T09:27:18;5.03;;;2.85;;
44658;SDS011;30378;50.186;8.644;2022-08-01T09:29:46;5.10;;;2.78;;
44658;SDS011;30378;50.186;8.644;2022-08-01T09:32:13;3.92;;;2.70;;
44658;SDS011;30378;50.186;8.644;2022-08-01T09:34:40;4.82;;;2.72;;
44658;SDS011;30378;50.186;8.644;2022-08-01T09:37:07;5.32;;;2.92;;
44658;SDS011;30378;50.186;8.644;2022-08-01T09:39:35;5.95;;;3.17;;
44658;SDS011;30378;50.186;8.644;2022-08-01T09:42:20;3.60;;;2.60;;
44658;SDS011;30378;50.186;8.644;2022-08-01T09:44:49;4.18;;;2.67;;
44658;SDS011;30378;50.186;8.644;2022-08-01T09:47:16;4.15;;;2.58;;
44658;SDS011;30378;50.186;8.644;2022-08-01T09:49:53;3.88;;;2.85;;
44658;SDS011;30378;50.186;8.644;2022-08-01T09:52:23;3.35;;;2.58;;
44658;SDS011;30378;50.186;8.644;2022-08-01T09:55:01;3.17;;;2.28;;
44658;SDS011;30378;50.186;8.644;2022-08-01T09:57:31;5.20;;;3.08;;
44658;SDS011;30378;50.186;8.644;2022-08-01T09:59:59;4.63;;;2.85;;
44658;SDS011;30378;50.186;8.644;2022-08-01T10:02:39;5.07;;;2.70;;
44658;SDS011;30378;50.186;8.644;2022-08-01T10:05:08;3.55;;;2.72;;
44658;SDS011;30378;50.186;8.644;2022-08-01T10:10:23;3.15;;;2.03;;
44658;SDS011;30378;50.186;8.644;2022-08-01T10:12:51;6.32;;;2.80;;
44658;SDS011;30378;50.186;8.644;2022-08-01T10:15:19;5.93;;;2.60;;
44658;SDS011;30378;50.186;8.644;2022-08-01T10:17:53;4.82;;;2.88;;
44658;SDS011;30378;50.186;8.644;2022-08-01T10:20:24;4.35;;;3.15;;
44658;SDS011;30378;50.186;8.644;2022-08-01T10:22:54;3.67;;;2.60;;
44658;SDS011;30378;50.186;8.644;2022-08-01T10:25:21;4.88;;;3.13;;
44658;SDS011;30378;50.186;8.644;2022-08-01T10:27:49;3.95;;;2.45;;
44658;SDS011;30378;50.186;8.644;2022-08-01T10:30:21;5.95;;;2.63;;
44658;SDS011;30378;50.186;8.644;2022-08-01T10:32:50;4.13;;;3.00;;
44658;SDS011;30378;50.186;8.644;2022-08-01T10:35:19;5.10;;;3.10;;
44658;SDS011;30378;50.186;8.644;2022-08-01T10:37:46;4.22;;;2.63;;
44658;SDS011;30378;50.186;8.644;2022-08-01T10:40:14;3.97;;;2.60;;
44658;SDS011;30378;50.186;8.644;2022-08-01T10:42:54;5.88;;;3.53;;
44658;SDS011;30378;50.186;8.644;2022-08-01T10:45:23;3.78;;;2.35;;
44658;SDS011;30378;50.186;8.644;2022-08-01T10:50:32;4.18;;;2.58;;
44658;SDS011;30378;50.186;8.644;2022-08-01T10:53:13;3.53;;;2.80;;
44658;SDS011;30378;50.186;8.644;2022-08-01T10:55:52;3.88;;;2.45;;
44658;SDS011;30378;50.186;8.644;2022-08-01T10:58:25;4.82;;;2.65;;
44658;SDS011;30378;50.186;8.644;2022-08-01T11:03:42;4.75;;;2.83;;
44658;SDS011;30378;50.186;8.644;2022-08-01T11:09:04;5.57;;;2.92;;
44658;SDS011;30378;50.186;8.644;2022-08-01T11:11:32;4.47;;;2.65;;
44658;SDS011;30378;50.186;8.644;2022-08-01T11:14:19;3.58;;;2.15;;
44658;SDS011;30378;50.186;8.644;2022-08-01T11:16:51;4.05;;;2.80;;
44658;SDS011;30378;50.186;8.644;2022-08-01T11:19:18;3.67;;;2.45;;
44658;SDS011;30378;50.186;8.644;2022-08-01T11:32:46;4.00;;;2.80;;
44658;SDS011;30378;50.186;8.644;2022-08-01T11:35:31;3.25;;;2.33;;
44658;SDS011;30378;50.186;8.644;2022-08-01T11:54:32;3.83;;;2.10;;
44658;SDS011;30378;50.186;8.644;2022-08-01T11:57:02;3.53;;;2.13;;
44658;SDS011;30378;50.186;8.644;2022-08-01T11:59:35;3.63;;;2.33;;
44658;SDS011;30378;50.186;8.644;2022-08-01T12:02:15;3.45;;;2.30;;
44658;SDS011;30378;50.186;8.644;2022-08-01T12:04:54;3.55;;;2.53;;
44658;SDS011;30378;50.186;8.644;2022-08-01T12:07:33;5.97;;;2.08;;
44658;SDS011;30378;50.186;8.644;2022-08-01T12:10:07;2.30;;;1.60;;
44658;SDS011;30378;50.186;8.644;2022-08-01T12:12:35;3.95;;;1.92;;
44658;SDS011;30378;50.186;8.644;2022-08-01T12:15:04;2.65;;;1.50;;
44658;SDS011;30378;50.186;8.644;2022-08-01T12:17:40;2.88;;;2.13;;
44658;SDS011;30378;50.186;8.644;2022-08-01T12:20:10;2.78;;;2.00;;
44658;SDS011;30378;50.186;8.644;2022-08-01T12:22:41;3.97;;;2.17;;
44658;SDS011;30378;50.186;8.644;2022-08-01T12:25:16;3.55;;;2.05;;
44658;SDS011;30378;50.186;8.644;2022-08-01T12:27:45;4.80;;;2.50;;
44658;SDS011;30378;50.186;8.644;2022-08-01T12:30:21;4.88;;;2.13;;
44658;SDS011;30378;50.186;8.644;2022-08-01T12:32:52;5.28;;;1.90;;
44658;SDS011;30378;50.186;8.644;2022-08-01T12:35:20;3.70;;;2.00;;
44658;SDS011;30378;50.186;8.644;2022-08-01T12:37:50;3.15;;;2.33;;
44658;SDS011;30378;50.186;8.644;2022-08-01T12:40:23;6.18;;;2.50;;
44658;SDS011;30378;50.186;8.644;2022-08-01T12:42:53;3.40;;;2.38;;
44658;SDS011;30378;50.186;8.644;2022-08-01T12:45:34;3.30;;;1.95;;
44658;SDS011;30378;50.186;8.644;2022-08-01T12:48:09;4.03;;;1.92;;
44658;SDS011;30378;50.186;8.644;2022-08-01T12:50:39;4.47;;;1.88;;
44658;SDS011;30378;50.186;8.644;2022-08-01T12:53:08;3.90;;;2.17;;
44658;SDS011;30378;50.186;8.644;2022-08-01T12:55:55;3.47;;;2.13;;
44658;SDS011;30378;50.186;8.644;2022-08-01T12:58:22;4.45;;;1.65;;
44658;SDS011;30378;50.186;8.644;2022-08-01T13:00:50;2.67;;;1.67;;
44658;SDS011;30378;50.186;8.644;2022-08-01T13:03:33;5.93;;;1.65;;
44658;SDS011;30378;50.186;8.644;2022-08-01T13:06:01;2.25;;;1.50;;
44658;SDS011;30378;50.186;8.644;2022-08-01T13:08:37;2.67;;;1.55;;
44658;SDS011;30378;50.186;8.644;2022-08-01T13:11:06;2.50;;;1.52;;
44658;SDS011;30378;50.186;8.644;2022-08-01T13:13:42;4.03;;;1.77;;
44658;SDS011;30378;50.186;8.644;2022-08-01T13:16:16;2.65;;;2.20;;
44658;SDS011;30378;50.186;8.644;2022-08-01T13:18:47;5.30;;;1.77;;
44658;SDS011;30378;50.186;8.644;2022-08-01T13:21:18;2.97;;;1.80;;
44658;SDS011;30378;50.186;8.644;2022-08-01T13:26:49;4.43;;;1.52;;
44658;SDS011;30378;50.186;8.644;2022-08-01T13:29:19;4.53;;;1.58;;
44658;SDS011;30378;50.186;8.644;2022-08-01T13:31:49;3.50;;;1.40;;
44658;SDS011;30378;50.186;8.644;2022-08-01T13:34:16;3.38;;;1.58;;
44658;SDS011;30378;50.186;8.644;2022-08-01T13:36:43;2.63;;;1.73;;
44658;SDS011;30378;50.186;8.644;2022-08-01T13:39:14;4.82;;;1.52;;
44658;SDS011;30378;50.186;8.644;2022-08-01T13:42:00;3.90;;;1.63;;
44658;SDS011;30378;50.186;8.644;2022-08-01T13:44:28;3.22;;;1.63;;
44658;SDS011;30378;50.186;8.644;2022-08-01T13:46:55;3.40;;;1.77;;
44658;SDS011;30378;50.186;8.644;2022-08-01T13:49:22;3.00;;;1.73;;
44658;SDS011;30378;50.186;8.644;2022-08-01T13:51:49;3.78;;;1.52;;
44658;SDS011;30378;50.186;8.644;2022-08-01T13:54:17;3.17;;;1.38;;
44658;SDS011;30378;50.186;8.644;2022-08-01T13:56:44;2.85;;;1.45;;
44658;SDS011;30378;50.186;8.644;2022-08-01T13:59:11;2.13;;;1.38;;
44658;SDS011;30378;50.186;8.644;2022-08-01T14:01:39;2.50;;;1.73;;
44658;SDS011;30378;50.186;8.644;2022-08-01T14:04:06;2.33;;;1.60;;
44658;SDS011;30378;50.186;8.644;2022-08-01T14:06:33;3.47;;;1.50;;
44658;SDS011;30378;50.186;8.644;2022-08-01T14:09:02;5.05;;;1.55;;
44658;SDS011;30378;50.186;8.644;2022-08-01T14:11:30;3.95;;;1.70;;
44658;SDS011;30378;50.186;8.644;2022-08-01T14:13:57;2.97;;;1.50;;
44658;SDS011;30378;50.186;8.644;2022-08-01T14:16:25;2.50;;;1.60;;
44658;SDS011;30378;50.186;8.644;2022-08-01T14:18:52;3.47;;;1.58;;
44658;SDS011;30378;50.186;8.644;2022-08-01T14:21:19;2.72;;;1.95;;
44658;SDS011;30378;50.186;8.644;2022-08-01T14:23:46;4.47;;;1.60;;
44658;SDS011;30378;50.186;8.644;2022-08-01T14:26:13;4.47;;;2.15;;
44658;SDS011;30378;50.186;8.644;2022-08-01T14:28:40;4.10;;;2.17;;
44658;SDS011;30378;50.186;8.644;2022-08-01T14:31:07;4.25;;;2.03;;
44658;SDS011;30378;50.186;8.644;2022-08-01T14:33:35;2.75;;;1.75;;
44658;SDS011;30378;50.186;8.644;2022-08-01T14:36:02;2.70;;;1.63;;
44658;SDS011;30378;50.186;8.644;2022-08-01T14:38:29;2.38;;;1.70;;
44658;SDS011;30378;50.186;8.644;2022-08-01T14:40:57;3.22;;;2.22;;
44658;SDS011;30378;50.186;8.644;2022-08-01T14:43:25;3.25;;;1.88;;
44658;SDS011;30378;50.186;8.644;2022-08-01T14:45:58;3.05;;;1.70;;
44658;SDS011;30378;50.186;8.644;2022-08-01T14:48:25;5.78;;;2.15;;
44658;SDS011;30378;50.186;8.644;2022-08-01T14:50:52;3.60;;;1.73;;
44658;SDS011;30378;50.186;8.644;2022-08-01T14:53:19;3.05;;;1.63;;
44658;SDS011;30378;50.186;8.644;2022-08-01T14:55:46;2.95;;;1.50;;
44658;SDS011;30378;50.186;8.644;2022-08-01T14:58:13;3.65;;;1.95;;
44658;SDS011;30378;50.186;8.644;2022-08-01T15:00:40;4.47;;;1.95;;
44658;SDS011;30378;50.186;8.644;2022-08-01T15:03:08;4.70;;;1.90;;
44658;SDS011;30378;50.186;8.644;2022-08-01T15:05:35;2.33;;;1.67;;
44658;SDS011;30378;50.186;8.644;2022-08-01T15:08:03;4.25;;;2.22;;
44658;SDS011;30378;50.186;8.644;2022-08-01T15:10:30;3.63;;;1.73;;
44658;SDS011;30378;50.186;8.644;2022-08-01T15:12:58;3.92;;;1.98;;
44658;SDS011;30378;50.186;8.644;2022-08-01T15:15:27;3.33;;;2.00;;
44658;SDS011;30378;50.186;8.644;2022-08-01T15:17:54;2.65;;;1.70;;
44658;SDS011;30378;50.186;8.644;2022-08-01T15:20:22;2.30;;;1.58;;
44658;SDS011;30378;50.186;8.644;2022-08-01T15:22:49;4.07;;;1.83;;
44658;SDS011;30378;50.186;8.644;2022-08-01T15:25:16;4.00;;;1.33;;
44658;SDS011;30378;50.186;8.644;2022-08-01T15:27:43;3.00;;;1.75;;
44658;SDS011;30378;50.186;8.644;2022-08-01T15:30:11;2.72;;;1.70;;
44658;SDS011;30378;50.186;8.644;2022-08-01T15:32:38;4.63;;;2.17;;
44658;SDS011;30378;50.186;8.644;2022-08-01T15:35:05;3.05;;;2.03;;
44658;SDS011;30378;50.186;8.644;2022-08-01T15:37:33;4.85;;;2.17;;
44658;SDS011;30378;50.186;8.644;2022-08-01T15:40:02;2.40;;;1.67;;
44658;SDS011;30378;50.186;8.644;2022-08-01T15:42:29;3.00;;;2.20;;
44658;SDS011;30378;50.186;8.644;2022-08-01T15:44:56;3.53;;;2.20;;
44658;SDS011;30378;50.186;8.644;2022-08-01T15:47:23;3.42;;;2.38;;
44658;SDS011;30378;50.186;8.644;2022-08-01T15:49:50;3.75;;;2.10;;
44658;SDS011;30378;50.186;8.644;2022-08-01T15:52:18;3.25;;;2.00;;